Time;durP1;ratioP1;P1;durP2;ratioP2;P2;SDS_P1;SDS_P2;PMS_P1;PMS_P2;Temp;Humidity;BMP_temperature;BMP_pressure;BME280_temperature;BME280_humidity;BME280_pressure;Samples;Min_cycle;Max_cycle;Signal;HPM_P1;HPM_P2
2022/10/10 00:00:52;;;;;;;5.80;3.93;;;;;;;12.48;66.37;100681.47;5054017;28;20742;-65
2022/10/10 00:03:20;;;;;;;7.47;3.87;;;;;;;12.38;66.79;100670.91;5052155;28;20215;-64
2022/10/10 00:05:49;;;;;;;9.53;4.07;;;;;;;12.35;66.63;100673.88;5048625;28;20272;-64
2022/10/10 00:08:17;;;;;;;7.90;3.80;;;;;;;12.34;66.51;100670.38;5051415;28;20210;-65
2022/10/10 00:10:44;;;;;;;5.60;3.40;;;;;;;12.33;66.66;100663.38;5053266;28;20622;-65
2022/10/10 00:13:12;;;;;;;6.70;3.93;;;;;;;12.35;66.53;100669.38;5052497;28;20288;-64
2022/10/10 00:15:40;;;;;;;7.10;3.50;;;;;;;12.31;66.74;100664.56;5055485;28;20215;-64
2022/10/10 00:18:12;;;;;;;9.43;4.10;;;;;;;12.29;66.66;100672.69;5049290;28;20269;-64
2022/10/10 00:20:39;;;;;;;8.60;3.40;;;;;;;12.29;66.21;100671.84;5048464;28;20236;-64
2022/10/10 00:23:08;;;;;;;6.23;3.10;;;;;;;12.31;66.37;100676.00;5046891;28;20212;-65
2022/10/10 00:25:36;;;;;;;9.30;3.73;;;;;;;12.27;66.91;100676.47;5050385;28;20668;-64
2022/10/10 00:28:04;;;;;;;8.27;4.30;;;;;;;12.27;66.69;100674.66;5055990;28;20203;-65
2022/10/10 00:30:32;;;;;;;8.10;3.90;;;;;;;12.29;66.79;100678.00;5048989;28;20230;-65
2022/10/10 00:33:00;;;;;;;5.90;3.33;;;;;;;12.31;66.67;100680.50;5053444;28;20219;-64
2022/10/10 00:35:28;;;;;;;8.03;3.73;;;;;;;12.30;66.62;100674.34;5049647;28;20206;-64
2022/10/10 00:37:56;;;;;;;7.53;3.97;;;;;;;12.30;66.52;100679.66;5050789;28;20206;-64
2022/10/10 00:40:25;;;;;;;7.27;3.77;;;;;;;12.30;66.10;100678.84;5051811;28;20231;-64
2022/10/10 00:42:53;;;;;;;8.20;3.47;;;;;;;12.32;65.99;100680.31;5049369;28;20208;-65
2022/10/10 00:45:26;;;;;;;10.17;4.30;;;;;;;12.29;65.96;100672.69;5049057;28;20211;-64
2022/10/10 00:47:58;;;;;;;8.57;3.90;;;;;;;12.18;66.54;100672.91;5053665;28;20264;-64
2022/10/10 00:50:28;;;;;;;9.23;4.33;;;;;;;12.14;66.55;100674.19;5050760;28;20206;-64
2022/10/10 00:52:56;;;;;;;5.77;3.47;;;;;;;12.14;66.70;100673.38;5048640;28;20226;-64
2022/10/10 00:55:25;;;;;;;7.40;3.90;;;;;;;12.12;66.64;100676.19;5048754;28;20223;-65
2022/10/10 00:57:53;;;;;;;9.77;3.53;;;;;;;12.05;66.97;100669.78;5046770;28;20695;-64
2022/10/10 01:00:21;;;;;;;6.27;3.90;;;;;;;12.09;66.84;100668.50;5046107;28;20243;-64
2022/10/10 01:02:48;;;;;;;7.83;3.83;;;;;;;12.00;67.47;100664.09;5051235;28;20215;-65
2022/10/10 01:05:17;;;;;;;6.67;3.80;;;;;;;11.97;67.80;100664.41;5046754;28;20206;-64
2022/10/10 01:07:45;;;;;;;8.10;4.00;;;;;;;12.01;67.70;100663.13;5049867;28;20264;-64
2022/10/10 01:10:16;;;;;;;6.43;3.70;;;;;;;12.00;67.41;100661.44;5046138;28;20217;-65
2022/10/10 01:12:56;;;;;;;7.83;4.03;;;;;;;12.01;67.54;100663.13;5046989;28;20627;-64
2022/10/10 01:15:31;;;;;;;5.60;3.40;;;;;;;12.05;67.15;100657.34;5048452;28;21668;-65
2022/10/10 01:18:11;;;;;;;8.40;4.00;;;;;;;12.04;66.99;100658.34;5050094;28;20203;-64
2022/10/10 01:20:56;;;;;;;6.30;3.63;;;;;;;12.00;67.17;100656.97;5048240;28;20234;-65
2022/10/10 01:23:43;;;;;;;5.83;3.70;;;;;;;11.98;67.39;100653.63;5048166;28;20203;-65
2022/10/10 01:26:34;;;;;;;7.70;3.37;;;;;;;11.99;67.06;100657.13;5049022;28;20210;-64
2022/10/10 01:29:09;;;;;;;5.80;3.30;;;;;;;11.91;67.39;100646.41;5046541;28;20215;-64
2022/10/10 01:31:42;;;;;;;7.57;3.63;;;;;;;11.89;67.37;100651.03;5049067;28;20213;-65
2022/10/10 01:34:19;;;;;;;7.20;3.53;;;;;;;11.87;67.97;100650.38;5050100;28;20199;-65
2022/10/10 01:36:54;;;;;;;6.53;3.30;;;;;;;11.89;67.83;100653.69;5050505;28;20219;-64
2022/10/10 01:39:28;;;;;;;7.37;4.00;;;;;;;11.91;67.82;100649.91;5049061;28;20217;-64
2022/10/10 01:42:01;;;;;;;5.80;3.70;;;;;;;11.93;67.65;100650.59;5054722;28;20255;-64
2022/10/10 01:44:30;;;;;;;7.90;3.33;;;;;;;11.97;67.87;100645.81;5048332;28;20304;-65
2022/10/10 01:46:58;;;;;;;6.00;3.53;;;;;;;11.90;67.86;100639.44;5049413;28;20209;-64
2022/10/10 01:49:31;;;;;;;6.10;3.40;;;;;;;11.89;67.61;100640.41;5049130;28;20222;-65
2022/10/10 01:52:09;;;;;;;5.53;3.53;;;;;;;11.83;68.03;100636.56;5050271;28;20219;-65
2022/10/10 01:54:43;;;;;;;6.17;3.63;;;;;;;11.86;68.14;100638.09;5046628;28;20210;-65
2022/10/10 01:57:22;;;;;;;8.67;3.87;;;;;;;11.94;67.56;100633.69;5052365;28;20206;-65
2022/10/10 02:00:02;;;;;;;10.80;4.40;;;;;;;11.99;67.27;100638.50;5054155;28;20205;-65
2022/10/10 02:02:41;;;;;;;10.23;4.27;;;;;;;11.92;67.52;100632.16;5051081;28;20220;-65
2022/10/10 02:05:17;;;;;;;10.13;4.80;;;;;;;11.94;67.66;100627.53;5049447;28;20307;-63
2022/10/10 02:07:52;;;;;;;10.13;4.80;;;;;;;11.82;67.85;100634.88;5053947;28;20225;-63
2022/10/10 02:10:26;;;;;;;10.23;4.80;;;;;;;11.79;68.13;100637.00;5051124;28;20204;-63
2022/10/10 02:12:55;;;;;;;10.40;4.73;;;;;;;11.75;68.18;100630.34;5059963;28;20228;-63
2022/10/10 02:15:28;;;;;;;13.17;5.37;;;;;;;11.76;68.16;100630.19;5051820;28;20213;-63
2022/10/10 02:17:57;;;;;;;12.63;6.03;;;;;;;11.83;68.13;100633.91;5053575;28;20209;-63
2022/10/10 02:20:28;;;;;;;17.77;7.90;;;;;;;11.81;68.18;100630.56;5049277;28;20218;-63
2022/10/10 02:22:56;;;;;;;16.97;6.67;;;;;;;11.82;68.35;100623.41;5050421;28;20302;-63
2022/10/10 02:25:27;;;;;;;11.77;5.50;;;;;;;11.83;68.53;100627.75;5052874;28;20985;-63
2022/10/10 02:28:06;;;;;;;12.67;5.23;;;;;;;11.78;68.48;100625.56;5051559;28;20206;-63
2022/10/10 02:30:39;;;;;;;10.07;5.00;;;;;;;11.78;68.47;100625.56;5053209;28;20804;-64
2022/10/10 02:33:08;;;;;;;9.07;4.77;;;;;;;11.73;68.38;100622.47;5049685;28;20205;-63
2022/10/10 02:35:40;;;;;;;8.70;4.53;;;;;;;11.67;68.43;100621.28;5049824;28;20218;-64
2022/10/10 02:38:11;;;;;;;8.50;4.10;;;;;;;11.63;68.33;100622.56;5050518;28;20211;-63
2022/10/10 02:40:40;;;;;;;5.57;3.47;;;;;;;11.67;68.50;100625.75;5054628;28;20215;-63
2022/10/10 02:43:09;;;;;;;6.77;4.00;;;;;;;11.69;68.01;100626.44;5057018;28;20213;-64
2022/10/10 02:45:40;;;;;;;6.27;3.47;;;;;;;11.64;67.97;100624.22;5063878;28;20319;-63
2022/10/10 02:48:08;;;;;;;8.63;4.10;;;;;;;11.59;68.41;100626.50;5064403;28;20218;-63
2022/10/10 02:50:37;;;;;;;6.97;3.47;;;;;;;11.57;68.49;100623.16;5059338;28;20234;-65
2022/10/10 02:53:04;;;;;;;6.60;4.47;;;;;;;11.49;68.69;100635.53;5060275;28;20224;-64
2022/10/10 02:55:32;;;;;;;7.63;4.23;;;;;;;11.43;69.02;100628.16;5060823;28;20600;-64
2022/10/10 02:57:59;;;;;;;9.50;3.87;;;;;;;11.34;69.40;100627.25;5058228;28;20285;-64
2022/10/10 03:00:27;;;;;;;6.50;3.73;;;;;;;11.34;69.44;100621.94;5057775;28;20885;-64
2022/10/10 03:02:56;;;;;;;7.47;3.33;;;;;;;11.41;69.21;100623.00;5055089;28;20755;-64
2022/10/10 03:05:24;;;;;;;6.10;3.50;;;;;;;11.44;68.73;100614.72;5047281;28;20219;-64
2022/10/10 03:07:51;;;;;;;9.17;3.97;;;;;;;11.31;69.48;100615.09;5050572;28;20203;-64
2022/10/10 03:10:19;;;;;;;7.33;4.03;;;;;;;11.34;69.82;100621.09;5057927;28;20290;-63
2022/10/10 03:12:46;;;;;;;6.97;3.63;;;;;;;11.38;69.58;100625.09;5053879;28;20254;-64
2022/10/10 03:15:15;;;;;;;7.70;4.03;;;;;;;11.42;69.29;100618.53;5058616;28;20273;-65
2022/10/10 03:17:43;;;;;;;8.40;4.10;;;;;;;11.48;69.21;100632.03;5050313;28;20359;-65
2022/10/10 03:20:12;;;;;;;8.27;4.30;;;;;;;11.42;69.32;100629.97;5051407;28;20210;-65
2022/10/10 03:22:40;;;;;;;11.73;3.97;;;;;;;11.35;69.76;100633.34;5052049;28;20308;-65
2022/10/10 03:25:08;;;;;;;6.67;3.90;;;;;;;11.27;70.06;100615.53;5052666;28;20736;-64
2022/10/10 03:27:35;;;;;;;6.10;3.60;;;;;;;11.31;70.12;100622.22;5049248;28;20455;-64
2022/10/10 03:30:03;;;;;;;9.13;4.10;;;;;;;11.31;70.41;100633.69;5052585;28;20248;-64
2022/10/10 03:32:31;;;;;;;7.53;3.77;;;;;;;11.40;69.84;100629.28;5057698;28;20586;-64
2022/10/10 03:34:59;;;;;;;7.60;4.50;;;;;;;11.39;69.73;100624.13;5051469;28;20274;-64
2022/10/10 03:37:27;;;;;;;7.53;4.43;;;;;;;11.48;69.60;100628.53;5051578;28;20217;-64
2022/10/10 03:39:55;;;;;;;11.63;4.30;;;;;;;11.53;69.38;100621.78;5054221;28;20571;-64
2022/10/10 03:42:23;;;;;;;7.77;4.23;;;;;;;11.52;69.44;100630.72;5054475;28;20240;-64
2022/10/10 03:44:50;;;;;;;7.03;4.20;;;;;;;11.47;69.78;100633.00;5051654;28;20271;-64
2022/10/10 03:47:18;;;;;;;9.10;5.10;;;;;;;11.50;69.80;100629.22;5051241;28;20218;-64
2022/10/10 03:49:45;;;;;;;7.87;4.70;;;;;;;11.48;69.74;100632.03;5057292;28;20227;-64
2022/10/10 03:52:13;;;;;;;10.20;4.80;;;;;;;11.46;69.70;100625.19;5053360;28;20206;-64
2022/10/10 03:54:42;;;;;;;11.77;5.00;;;;;;;11.43;69.92;100625.50;5053355;28;20209;-64
2022/10/10 03:57:09;;;;;;;7.80;4.63;;;;;;;11.37;70.17;100634.88;5053072;28;20370;-64
2022/10/10 03:59:37;;;;;;;6.20;4.17;;;;;;;11.28;70.48;100633.13;5052162;28;20267;-64
2022/10/10 04:02:05;;;;;;;11.47;4.80;;;;;;;11.18;71.27;100635.00;5048301;28;20233;-64
2022/10/10 04:04:32;;;;;;;7.53;4.73;;;;;;;11.19;71.07;100634.00;5053009;28;20222;-63
2022/10/10 04:07:00;;;;;;;7.90;3.77;;;;;;;11.23;70.97;100638.06;5050584;28;20211;-64
2022/10/10 04:09:28;;;;;;;7.23;4.37;;;;;;;11.15;70.99;100633.50;5052510;28;20309;-64
2022/10/10 04:11:57;;;;;;;7.10;4.13;;;;;;;11.19;70.81;100632.19;5050117;28;20225;-64
2022/10/10 04:14:25;;;;;;;11.70;4.50;;;;;;;11.24;70.63;100627.28;5051449;28;20217;-64
2022/10/10 04:16:53;;;;;;;6.43;4.27;;;;;;;11.26;70.11;100629.78;5053239;28;20217;-63
2022/10/10 04:19:20;;;;;;;10.80;4.50;;;;;;;11.21;69.92;100627.59;5056178;28;20211;-64
2022/10/10 04:21:48;;;;;;;9.70;4.77;;;;;;;11.27;69.97;100626.97;5051457;28;20269;-64
2022/10/10 04:24:16;;;;;;;8.47;4.77;;;;;;;11.36;69.49;100625.25;5050409;28;20210;-64
2022/10/10 04:26:44;;;;;;;7.60;4.70;;;;;;;11.32;69.67;100629.19;5047186;28;20270;-64
2022/10/10 04:29:13;;;;;;;8.83;4.57;;;;;;;11.23;69.72;100620.31;5051590;28;20751;-64
2022/10/10 04:31:40;;;;;;;9.40;4.07;;;;;;;11.22;69.72;100628.41;5050816;28;20210;-64
2022/10/10 04:34:08;;;;;;;7.00;4.07;;;;;;;11.22;69.45;100625.75;5049277;28;20213;-64
2022/10/10 04:36:35;;;;;;;7.87;4.03;;;;;;;11.32;69.04;100618.59;5052832;28;20221;-64
2022/10/10 04:39:04;;;;;;;8.50;4.23;;;;;;;11.39;68.73;100617.00;5049234;28;20245;-63
2022/10/10 04:41:32;;;;;;;10.57;4.93;;;;;;;11.37;68.89;100621.59;5048782;28;20613;-64
2022/10/10 04:43:59;;;;;;;8.87;5.17;;;;;;;11.22;69.71;100631.91;5052381;28;20714;-64
2022/10/10 04:46:28;;;;;;;10.73;4.50;;;;;;;11.09;70.19;100633.22;5048002;28;20774;-65
2022/10/10 04:48:56;;;;;;;13.03;5.00;;;;;;;11.03;70.39;100639.97;5050689;28;20732;-64
2022/10/10 04:51:24;;;;;;;7.67;4.80;;;;;;;11.05;70.48;100647.78;5047118;28;20815;-64
2022/10/10 04:53:51;;;;;;;10.23;4.43;;;;;;;11.07;70.48;100651.13;5049302;28;20224;-64
2022/10/10 04:56:19;;;;;;;13.30;4.50;;;;;;;11.12;69.90;100632.94;5046998;28;20551;-64
2022/10/10 04:58:46;;;;;;;11.17;4.80;;;;;;;11.11;69.88;100652.50;5049068;28;20204;-64
2022/10/10 05:01:14;;;;;;;8.00;4.30;;;;;;;11.03;70.02;100647.94;5046776;28;20793;-63
2022/10/10 05:03:43;;;;;;;8.23;4.80;;;;;;;10.96;69.89;100643.34;5044577;28;20231;-66
2022/10/10 05:06:11;;;;;;;12.60;4.50;;;;;;;11.00;69.78;100652.69;5048303;28;20246;-64
2022/10/10 05:08:39;;;;;;;7.37;4.40;;;;;;;11.06;69.55;100649.47;5049795;28;20277;-63
2022/10/10 05:11:06;;;;;;;6.53;3.93;;;;;;;11.15;69.29;100648.56;5047318;28;20211;-63
2022/10/10 05:13:34;;;;;;;10.57;5.10;;;;;;;11.29;68.65;100642.75;5044823;28;20224;-63
2022/10/10 05:16:01;;;;;;;11.90;4.80;;;;;;;11.14;69.14;100630.97;5050997;28;20612;-64
2022/10/10 05:18:29;;;;;;;10.23;5.20;;;;;;;11.11;69.69;100633.91;5053503;28;20235;-64
2022/10/10 05:20:59;;;;;;;10.33;4.40;;;;;;;11.16;69.49;100636.97;5050200;28;20232;-64
2022/10/10 05:23:30;;;;;;;9.43;5.30;;;;;;;11.17;69.78;100636.00;5050708;28;20216;-64
2022/10/10 05:25:58;;;;;;;8.93;4.83;;;;;;;11.02;70.45;100637.44;5054610;28;20208;-63
2022/10/10 05:28:26;;;;;;;9.13;4.60;;;;;;;10.96;70.78;100627.44;5049479;28;20207;-65
2022/10/10 05:30:54;;;;;;;11.07;4.40;;;;;;;11.01;70.88;100618.03;5051680;28;20200;-64
2022/10/10 05:33:22;;;;;;;9.87;4.90;;;;;;;10.94;71.63;100636.38;5064211;28;20438;-65
2022/10/10 05:35:49;;;;;;;12.20;5.00;;;;;;;10.92;71.79;100630.38;5059761;28;20226;-65
2022/10/10 05:38:18;;;;;;;13.90;5.53;;;;;;;10.91;71.97;100634.00;5061747;28;20209;-64
2022/10/10 05:40:46;;;;;;;9.63;5.40;;;;;;;11.00;71.64;100631.44;5060772;28;20204;-64
2022/10/10 05:43:13;;;;;;;11.10;5.50;;;;;;;10.98;72.24;100633.44;5060126;28;20236;-64
2022/10/10 05:45:42;;;;;;;10.93;5.00;;;;;;;11.07;72.21;100635.22;5062771;28;20273;-64
2022/10/10 05:48:10;;;;;;;11.83;5.33;;;;;;;11.18;72.08;100637.66;5061084;28;20220;-63
2022/10/10 05:50:40;;;;;;;10.13;5.53;;;;;;;11.21;72.11;100642.66;5060244;28;20285;-64
2022/10/10 05:53:07;;;;;;;13.57;6.33;;;;;;;11.26;71.83;100635.91;5059521;28;21563;-64
2022/10/10 05:55:36;;;;;;;14.27;6.50;;;;;;;11.25;72.37;100633.44;5059340;28;20596;-64
2022/10/10 05:58:05;;;;;;;14.07;6.00;;;;;;;11.29;72.53;100629.50;5055605;28;20802;-64
2022/10/10 06:00:33;;;;;;;15.25;7.78;;;;;;;11.49;72.00;100636.34;5048613;28;20816;-61
2022/10/10 06:03:01;;;;;;;20.50;9.23;;;;;;;11.46;72.00;100638.47;5046749;28;20705;-61
2022/10/10 06:05:29;;;;;;;20.70;7.53;;;;;;;11.34;72.46;100637.84;5047984;28;20570;-60
2022/10/10 06:07:56;;;;;;;12.87;6.73;;;;;;;11.33;72.70;100636.19;5048752;28;20565;-59
2022/10/10 06:10:41;;;;;;;17.07;6.37;;;;;;;11.31;73.09;100632.84;5057213;28;20212;-60
2022/10/10 06:13:09;;;;;;;13.43;6.63;;;;;;;11.29;73.11;100638.28;5056596;28;20258;-61
2022/10/10 06:15:37;;;;;;;14.33;6.67;;;;;;;11.31;73.14;100638.97;5053310;28;20241;-61
2022/10/10 06:18:05;;;;;;;17.40;7.73;;;;;;;11.32;73.39;100639.81;5049055;28;20206;-60
2022/10/10 06:20:34;;;;;;;15.00;7.63;;;;;;;11.28;73.70;100649.88;5054694;28;20275;-60
2022/10/10 06:23:02;;;;;;;16.43;7.17;;;;;;;11.29;73.68;100650.72;5050632;28;20219;-60
2022/10/10 06:25:30;;;;;;;15.93;7.00;;;;;;;11.37;73.41;100656.13;5047807;28;20612;-60
2022/10/10 06:28:14;;;;;;;18.83;6.10;;;;;;;11.38;73.42;100655.16;5050161;28;21280;-61
2022/10/10 06:30:42;;;;;;;11.43;6.13;;;;;;;11.38;73.40;100654.31;5050350;28;20260;-61
2022/10/10 06:33:11;;;;;;;14.37;6.53;;;;;;;11.41;73.24;100664.66;5054175;28;20207;-61
2022/10/10 06:35:41;;;;;;;14.37;6.53;;;;;;;11.46;72.53;100671.16;5053067;28;20607;-61
2022/10/10 06:38:09;;;;;;;16.47;7.67;;;;;;;11.53;72.34;100674.91;5052767;28;20213;-61
2022/10/10 06:40:36;;;;;;;15.53;7.00;;;;;;;11.60;72.13;100673.34;5051213;28;20477;-61
2022/10/10 06:43:07;;;;;;;16.50;7.80;;;;;;;11.66;71.96;100672.72;5055175;28;20241;-61
2022/10/10 06:45:37;;;;;;;15.40;6.60;;;;;;;11.72;71.79;100663.31;5055581;28;20197;-61
2022/10/10 06:48:05;;;;;;;14.93;7.27;;;;;;;11.79;71.72;100679.50;5055175;28;20205;-61
2022/10/10 06:50:33;;;;;;;13.20;7.03;;;;;;;11.86;71.55;100669.97;5053638;28;20217;-61
2022/10/10 06:53:00;;;;;;;13.17;6.57;;;;;;;11.93;71.22;100679.00;5053984;28;20305;-61
2022/10/10 06:55:28;;;;;;;13.23;6.33;;;;;;;12.03;71.02;100674.44;5057537;28;20217;-61
2022/10/10 06:57:56;;;;;;;17.53;6.50;;;;;;;12.05;70.95;100685.75;5052459;28;20709;-60
2022/10/10 07:00:23;;;;;;;17.43;7.27;;;;;;;12.04;71.61;100686.75;5051813;28;20256;-60
2022/10/10 07:02:52;;;;;;;14.87;7.13;;;;;;;12.06;72.38;100684.75;5052545;28;20342;-60
2022/10/10 07:05:22;;;;;;;10.47;6.40;;;;;;;12.14;72.14;100690.13;5056371;28;20233;-60
2022/10/10 07:07:51;;;;;;;10.97;5.63;;;;;;;12.23;72.11;100688.38;5057225;28;20211;-60
2022/10/10 07:10:19;;;;;;;10.97;5.53;;;;;;;12.30;71.55;100695.63;5054447;28;20311;-60
2022/10/10 07:12:47;;;;;;;9.77;5.63;;;;;;;12.34;71.52;100701.44;5052566;28;20230;-60
2022/10/10 07:15:14;;;;;;;11.40;6.47;;;;;;;12.28;72.59;100705.56;5054395;28;20240;-59
2022/10/10 07:17:42;;;;;;;9.87;6.33;;;;;;;12.20;73.66;100707.31;5050108;28;20220;-60
2022/10/10 07:20:11;;;;;;;12.23;6.80;;;;;;;12.18;73.61;100702.16;5053617;28;20237;-60
2022/10/10 07:22:38;;;;;;;12.87;7.00;;;;;;;12.22;73.52;100703.53;5052584;28;20236;-60
2022/10/10 07:25:07;;;;;;;14.00;7.17;;;;;;;12.28;73.82;100702.06;5051168;28;20690;-60
2022/10/10 07:27:34;;;;;;;14.10;7.60;;;;;;;12.38;73.00;100708.97;5053350;28;20717;-60
2022/10/10 07:30:02;;;;;;;15.47;7.17;;;;;;;12.43;72.86;100709.34;5048652;28;20212;-60
2022/10/10 07:32:30;;;;;;;13.30;6.80;;;;;;;12.44;72.69;100713.69;5052326;28;20211;-60
2022/10/10 07:34:58;;;;;;;15.07;7.30;;;;;;;12.50;72.36;100708.72;5054555;28;20215;-60
2022/10/10 07:37:27;;;;;;;14.27;7.03;;;;;;;12.54;72.27;100718.06;5056982;28;20261;-59
2022/10/10 07:39:55;;;;;;;11.27;6.27;;;;;;;12.54;72.60;100718.91;5052571;28;20204;-60
2022/10/10 07:42:23;;;;;;;11.40;6.57;;;;;;;12.59;72.50;100716.59;5055411;28;20262;-59
2022/10/10 07:44:50;;;;;;;12.33;6.37;;;;;;;12.65;72.31;100729.31;5053692;28;20230;-60
2022/10/10 07:47:18;;;;;;;10.53;6.30;;;;;;;12.73;71.77;100736.50;5059770;28;20273;-60
2022/10/10 07:49:46;;;;;;;16.67;8.07;;;;;;;12.81;71.78;100736.56;5059388;28;20216;-60
2022/10/10 07:52:13;;;;;;;24.07;7.47;;;;;;;12.83;72.32;100734.59;5058043;28;20241;-61
2022/10/10 07:54:42;;;;;;;11.13;6.23;;;;;;;12.86;72.52;100728.09;5058590;28;20199;-60
2022/10/10 07:57:10;;;;;;;11.37;5.90;;;;;;;12.86;72.73;100728.94;5053560;28;20212;-60
2022/10/10 07:59:39;;;;;;;9.77;5.80;;;;;;;12.91;73.17;100737.31;5060515;28;20231;-60
2022/10/10 08:02:07;;;;;;;9.10;5.80;;;;;;;12.96;73.08;100732.31;5059548;28;20305;-61
2022/10/10 08:04:34;;;;;;;21.20;6.63;;;;;;;12.87;73.68;100725.28;5050831;28;20293;-60
2022/10/10 08:07:02;;;;;;;9.30;5.93;;;;;;;12.88;73.88;100724.28;5057279;28;20211;-61
2022/10/10 08:09:30;;;;;;;10.77;5.83;;;;;;;12.94;73.95;100726.31;5050796;28;20637;-60
2022/10/10 08:11:59;;;;;;;10.33;5.63;;;;;;;13.05;73.72;100722.56;5051325;28;20243;-60
2022/10/10 08:14:27;;;;;;;12.03;6.73;;;;;;;13.09;73.43;100724.78;5060324;28;20203;-60
2022/10/10 08:16:54;;;;;;;11.10;6.03;;;;;;;13.11;73.32;100721.91;5059923;28;20208;-60
2022/10/10 08:19:22;;;;;;;12.27;6.07;;;;;;;13.06;74.12;100727.75;5062824;28;20547;-60
2022/10/10 08:21:49;;;;;;;12.57;6.20;;;;;;;13.06;74.07;100735.72;5058733;28;20246;-60
2022/10/10 08:24:17;;;;;;;11.03;5.97;;;;;;;13.08;74.50;100723.09;5059626;28;20238;-60
2022/10/10 08:26:45;;;;;;;13.27;6.90;;;;;;;13.04;74.98;100732.38;5058470;28;20204;-60
2022/10/10 08:29:14;;;;;;;12.77;6.23;;;;;;;13.05;75.40;100734.06;5060159;28;20554;-60
2022/10/10 08:31:42;;;;;;;18.93;6.97;;;;;;;12.95;76.35;100735.16;5056528;28;20215;-60
2022/10/10 08:34:10;;;;;;;18.67;7.33;;;;;;;12.87;77.31;100722.63;5060198;28;20211;-61
2022/10/10 08:36:38;;;;;;;13.40;6.53;;;;;;;12.91;77.53;100729.31;5058056;28;20232;-61
2022/10/10 08:39:05;;;;;;;11.17;6.13;;;;;;;12.86;78.29;100726.28;5061158;28;20204;-60
2022/10/10 08:41:40;;;;;;;11.70;6.97;;;;;;;12.97;78.16;100726.03;5056938;28;20246;-61
2022/10/10 08:44:19;;;;;;;13.53;6.67;;;;;;;13.07;77.45;100725.91;5065030;28;20207;-60
2022/10/10 08:46:50;;;;;;;12.70;6.87;;;;;;;13.29;76.64;100721.88;5059089;28;20581;-61
2022/10/10 08:49:24;;;;;;;14.07;6.93;;;;;;;13.42;76.83;100735.59;5057684;28;20257;-61
2022/10/10 08:52:01;;;;;;;10.47;6.80;;;;;;;13.72;76.59;100727.03;5057253;28;20224;-60
2022/10/10 08:54:32;;;;;;;12.23;6.37;;;;;;;13.88;73.24;100720.94;5054067;28;20205;-61
2022/10/10 08:57:04;;;;;;;9.00;6.20;;;;;;;14.01;73.64;100723.13;5060720;28;20225;-61
2022/10/10 08:59:38;;;;;;;13.03;6.13;;;;;;;14.09;72.50;100717.78;5059624;28;20548;-59
2022/10/10 09:02:32;;;;;;;18.53;7.63;;;;;;;14.20;73.00;100714.81;5058370;28;20294;-61
2022/10/10 09:05:26;;;;;;;17.80;7.03;;;;;;;14.28;72.72;100709.47;5053627;28;20563;-60
2022/10/10 09:08:21;;;;;;;20.53;7.17;;;;;;;14.31;73.87;100706.50;5056048;28;20206;-61
2022/10/10 09:10:57;;;;;;;14.13;7.60;;;;;;;14.41;73.51;100711.69;5048334;28;20268;-60
2022/10/10 09:13:33;;;;;;;11.67;7.10;;;;;;;14.52;73.24;100704.16;5056650;28;20227;-60
2022/10/10 09:16:06;;;;;;;15.37;7.37;;;;;;;14.75;71.92;100695.47;5052949;28;20704;-61
2022/10/10 09:18:53;;;;;;;14.20;7.67;;;;;;;14.95;71.77;100702.94;5055683;28;20616;-60
2022/10/10 09:21:25;;;;;;;10.47;7.07;;;;;;;15.09;71.04;100712.09;5057566;28;20239;-60
2022/10/10 09:24:01;;;;;;;19.60;7.70;;;;;;;15.35;69.58;100704.66;5058730;28;20644;-61
2022/10/10 09:26:35;;;;;;;12.23;7.63;;;;;;;15.66;69.12;100698.50;5058628;28;20226;-61
2022/10/10 09:29:15;;;;;;;17.73;7.97;;;;;;;15.89;67.49;100707.41;5055254;28;20204;-60
2022/10/10 09:31:50;;;;;;;16.40;6.83;;;;;;;16.04;67.19;100702.97;5053331;28;20214;-61
2022/10/10 09:34:22;;;;;;;11.13;7.60;;;;;;;16.14;65.94;100702.72;5049049;28;20236;-61
2022/10/10 09:36:51;;;;;;;12.83;7.07;;;;;;;16.36;65.39;100701.06;5037446;28;20208;-61
2022/10/10 09:39:36;;;;;;;15.27;6.53;;;;;;;16.60;64.16;100694.66;5052210;28;20406;-61
2022/10/10 09:42:09;;;;;;;16.33;7.10;;;;;;;17.07;63.76;100691.66;5059429;28;20237;-61
2022/10/10 09:44:38;;;;;;;13.47;7.30;;;;;;;17.41;62.12;100689.28;5058502;28;20751;-61
2022/10/10 09:47:12;;;;;;;15.03;6.80;;;;;;;17.46;62.32;100697.56;5057110;28;20265;-61
2022/10/10 09:49:40;;;;;;;18.53;7.73;;;;;;;17.33;62.63;100697.38;5056106;28;20203;-64
2022/10/10 09:52:23;;;;;;;14.27;7.30;;;;;;;17.22;62.85;100698.72;5057186;28;20265;-61
2022/10/10 09:54:55;;;;;;;12.33;6.30;;;;;;;17.18;63.38;100692.03;5056772;28;20222;-62
2022/10/10 09:57:26;;;;;;;11.70;6.43;;;;;;;17.10;63.35;100685.94;5053464;28;20546;-61
2022/10/10 09:59:54;;;;;;;14.70;6.90;;;;;;;17.02;64.33;100691.41;5051234;28;20204;-62
2022/10/10 10:02:25;;;;;;;12.37;7.10;;;;;;;17.03;64.62;100693.06;5052528;28;20222;-61
2022/10/10 10:04:54;;;;;;;14.03;6.73;;;;;;;16.96;64.55;100698.34;5053110;28;20244;-61
2022/10/10 10:07:26;;;;;;;14.77;8.00;;;;;;;17.07;65.40;100695.19;5050819;28;20212;-61
2022/10/10 10:09:57;;;;;;;18.53;7.50;;;;;;;17.13;65.07;100688.28;5057532;28;20637;-60
2022/10/10 10:12:28;;;;;;;16.27;6.90;;;;;;;17.22;65.03;100688.00;5052054;28;20220;-60
2022/10/10 10:15:01;;;;;;;12.47;7.43;;;;;;;17.21;65.65;100691.69;5052619;28;20227;-61
2022/10/10 10:17:31;;;;;;;11.87;6.57;;;;;;;17.18;65.71;100685.84;5057522;28;20211;-61
2022/10/10 10:19:58;;;;;;;12.23;6.40;;;;;;;17.15;65.49;100680.88;5051839;28;20211;-62
2022/10/10 10:22:32;;;;;;;11.73;7.27;;;;;;;17.27;65.98;100682.06;5052708;28;20243;-62
2022/10/10 10:25:30;;;;;;;12.17;7.13;;;;;;;17.27;66.56;100682.06;5055471;28;20503;-62
2022/10/10 10:28:21;;;;;;;15.20;7.07;;;;;;;17.27;66.79;100696.28;5056948;28;20210;-62
2022/10/10 10:30:52;;;;;;;13.97;7.10;;;;;;;17.29;66.60;100707.66;5048733;28;20329;-62
2022/10/10 10:33:39;;;;;;;13.70;8.07;;;;;;;17.67;65.29;100710.25;5049916;28;20215;-62
2022/10/10 10:36:19;;;;;;;10.87;6.83;;;;;;;18.03;64.47;100692.25;5051740;28;20203;-62
2022/10/10 10:38:52;;;;;;;20.07;7.77;;;;;;;18.21;65.07;100694.47;5051980;28;20211;-63
2022/10/10 10:41:32;;;;;;;13.23;7.60;;;;;;;18.34;64.07;100686.56;5050637;28;20222;-62
2022/10/10 10:44:13;;;;;;;11.17;6.67;;;;;;;18.31;64.03;100686.94;5050369;28;20200;-61
2022/10/10 10:46:54;;;;;;;16.30;7.20;;;;;;;18.25;65.14;100681.53;5046739;28;20239;-62
2022/10/10 10:49:29;;;;;;;14.70;7.27;;;;;;;18.18;65.45;100684.16;5051837;28;20562;-63
2022/10/10 10:52:23;;;;;;;12.77;7.07;;;;;;;18.26;65.15;100681.34;5048223;28;20660;-60
2022/10/10 10:55:13;;;;;;;16.30;7.13;;;;;;;18.13;65.89;100697.31;5047053;28;20215;-61
2022/10/10 10:57:59;;;;;;;11.63;6.57;;;;;;;18.23;66.15;100688.94;5049703;28;20346;-61
2022/10/10 11:00:54;;;;;;;9.87;5.93;;;;;;;18.31;66.28;100688.78;5055292;28;20683;-60
2022/10/10 11:03:59;;;;;;;11.63;6.37;;;;;;;18.62;65.57;100689.31;5051504;28;20208;-61
2022/10/10 11:07:06;;;;;;;13.77;6.57;;;;;;;19.07;63.94;100685.28;5057654;28;20365;-60
2022/10/10 11:09:53;;;;;;;10.27;6.60;;;;;;;19.82;61.65;100683.53;5059928;28;20215;-60
2022/10/10 11:12:44;;;;;;;17.87;7.57;;;;;;;21.54;55.97;100678.88;5055592;28;20239;-61
2022/10/10 11:15:19;;;;;;;9.87;6.67;;;;;;;23.53;50.06;100672.44;5056348;28;20208;-61
2022/10/10 11:17:55;;;;;;;13.17;5.93;;;;;;;24.21;48.57;100672.09;5053315;28;20211;-61
2022/10/10 11:20:27;;;;;;;12.90;5.45;;;;;;;24.91;46.81;100666.75;5059330;28;20211;-61
2022/10/10 11:23:00;;;;;;;8.32;4.95;;;;;;;25.10;45.71;100670.16;5059818;28;20219;-61
2022/10/10 11:25:41;;;;;;;8.70;4.97;;;;;;;25.36;45.24;100666.06;5057452;28;20240;-61
2022/10/10 11:28:15;;;;;;;13.02;5.47;;;;;;;25.11;45.59;100658.22;5058987;28;20210;-61
2022/10/10 11:30:48;;;;;;;7.90;4.82;;;;;;;25.17;46.03;100665.41;5053695;28;20207;-62
2022/10/10 11:33:20;;;;;;;10.85;4.60;;;;;;;25.15;45.95;100661.31;5057615;28;20199;-61
2022/10/10 11:35:53;;;;;;;10.10;5.18;;;;;;;24.91;45.92;100677.59;5062289;28;20211;-61
2022/10/10 11:38:27;;;;;;;9.18;4.50;;;;;;;24.48;46.99;100666.25;5059395;28;20215;-61